createdAt,value
2022-11-30T00:01:48.394Z,97353.63
2022-11-30T00:04:14.926Z,97347.53
2022-11-30T00:06:44.525Z,97350.19
2022-11-30T00:09:13.243Z,97348.41
2022-11-30T00:11:39.777Z,97347.66
2022-11-30T00:14:06.889Z,97344.09
2022-11-30T00:16:33.475Z,97359.72
2022-11-30T00:19:00.003Z,97351.22
2022-11-30T00:21:26.487Z,97352.03
2022-11-30T00:23:52.978Z,97347.84
2022-11-30T00:26:22.467Z,97350.38
2022-11-30T00:28:49.494Z,97352.84
2022-11-30T00:31:18.598Z,97351.91
2022-11-30T00:33:45.504Z,97354.44
2022-11-30T00:36:17.292Z,97354.44
2022-11-30T00:38:44.343Z,97356.22
2022-11-30T00:41:11.544Z,97361.41
2022-11-30T00:43:38.098Z,97366.56
2022-11-30T00:46:05.769Z,97360.41
2022-11-30T00:48:32.369Z,97357.81
2022-11-30T00:50:58.962Z,97364.84
2022-11-30T00:53:25.579Z,97360.66
2022-11-30T00:55:52.158Z,97359.00
2022-11-30T00:58:18.793Z,97356.47
2022-11-30T01:00:46.043Z,97360.91
2022-11-30T01:03:12.849Z,97375.75
2022-11-30T01:05:39.966Z,97372.34
2022-11-30T01:08:08.253Z,97372.19
2022-11-30T01:10:35.964Z,97370.44
2022-11-30T01:13:02.589Z,97357.47
2022-11-30T01:15:29.612Z,97369.47
2022-11-30T01:17:56.406Z,97376.59
2022-11-30T01:20:22.945Z,97387.84
2022-11-30T01:22:49.518Z,97379.28
2022-11-30T01:25:16.133Z,97387.94
2022-11-30T01:27:42.813Z,97379.13
2022-11-30T01:30:09.910Z,97377.66
2022-11-30T01:32:36.368Z,97381.78
2022-11-30T01:35:02.939Z,97385.97
2022-11-30T01:37:32.464Z,97378.41
2022-11-30T01:39:59.010Z,97386.16
2022-11-30T01:42:25.539Z,97383.66
2022-11-30T01:45:00.269Z,97390.50
2022-11-30T01:47:32.736Z,97390.59
2022-11-30T01:50:14.922Z,97389.69
2022-11-30T01:52:44.951Z,97382.75
2022-11-30T01:55:27.078Z,97390.50
2022-11-30T01:58:00.735Z,97381.84
2022-11-30T02:00:27.526Z,97389.00
2022-11-30T02:03:05.231Z,97383.84
2022-11-30T02:05:36.095Z,97384.75
2022-11-30T02:08:02.898Z,97382.78
2022-11-30T02:10:32.505Z,97390.53
2022-11-30T02:13:17.313Z,97392.34
2022-11-30T02:15:55.906Z,97398.69
2022-11-30T02:18:59.013Z,97403.00
2022-11-30T02:21:46.990Z,97391.75
2022-11-30T02:24:25.725Z,97392.66
2022-11-30T02:27:17.592Z,97390.81
2022-11-30T02:29:49.722Z,97391.78
2022-11-30T02:32:38.572Z,97380.50
2022-11-30T02:35:07.876Z,97383.22
2022-11-30T02:37:37.160Z,97373.69
2022-11-30T02:40:09.583Z,97392.72
2022-11-30T02:42:36.092Z,97392.78
2022-11-30T02:45:03.104Z,97385.09
2022-11-30T02:47:40.529Z,97380.78
2022-11-30T02:50:22.549Z,97386.00
2022-11-30T02:52:52.597Z,97376.34
2022-11-30T02:55:20.256Z,97371.28
2022-11-30T02:57:47.138Z,97367.59
2022-11-30T03:00:14.717Z,97372.63
2022-11-30T03:02:41.839Z,97373.66
2022-11-30T03:05:09.405Z,97378.66
2022-11-30T03:07:36.238Z,97390.81
2022-11-30T03:10:03.294Z,97398.56
2022-11-30T03:12:29.845Z,97409.03
2022-11-30T03:14:56.382Z,97407.41
2022-11-30T03:17:23.158Z,97398.66
2022-11-30T03:19:49.635Z,97395.34
2022-11-30T03:22:16.230Z,97399.66
2022-11-30T03:24:42.805Z,97402.31
2022-11-30T03:27:09.385Z,97401.53
2022-11-30T03:29:35.951Z,97404.97
2022-11-30T03:32:02.462Z,97399.81
2022-11-30T03:34:29.008Z,97394.44
2022-11-30T03:36:55.680Z,97400.81
2022-11-30T03:39:22.222Z,97401.66
2022-11-30T03:41:48.702Z,97400.66
2022-11-30T03:44:15.194Z,97393.84
2022-11-30T03:46:41.740Z,97401.47
2022-11-30T03:49:08.315Z,97405.00
2022-11-30T03:51:35.437Z,97400.59
2022-11-30T03:54:01.969Z,97397.22
2022-11-30T03:56:28.791Z,97399.66
2022-11-30T03:58:55.417Z,97393.66
2022-11-30T04:01:23.649Z,97404.84
2022-11-30T04:03:51.821Z,97394.66
2022-11-30T04:06:19.055Z,97406.84
2022-11-30T04:08:46.217Z,97405.38
2022-11-30T04:11:13.686Z,97412.16
2022-11-30T04:13:40.967Z,97407.16
2022-11-30T04:16:08.920Z,97407.91
2022-11-30T04:18:36.922Z,97403.59
2022-11-30T04:21:04.244Z,97410.53
2022-11-30T04:23:34.585Z,97409.59
2022-11-30T04:26:06.966Z,97405.31
2022-11-30T04:28:34.571Z,97401.09
2022-11-30T04:31:02.574Z,97394.03
2022-11-30T04:33:29.706Z,97397.63
2022-11-30T04:35:58.807Z,97403.84
2022-11-30T04:38:26.134Z,97395.94
2022-11-30T04:40:52.809Z,97402.78
2022-11-30T04:43:20.230Z,97405.44
2022-11-30T04:45:46.889Z,97402.00
2022-11-30T04:48:13.711Z,97407.16
2022-11-30T04:50:40.338Z,97411.50
2022-11-30T04:53:07.677Z,97404.50
2022-11-30T04:55:34.232Z,97410.63
2022-11-30T04:58:00.810Z,97412.25
2022-11-30T05:00:27.380Z,97414.19
2022-11-30T05:02:56.500Z,97422.97
2022-11-30T05:05:23.664Z,97413.41
2022-11-30T05:07:51.767Z,97415.19
2022-11-30T05:10:18.617Z,97416.00
2022-11-30T05:12:45.396Z,97423.88
2022-11-30T05:15:12.224Z,97427.34
2022-11-30T05:17:39.435Z,97425.56
2022-11-30T05:20:07.875Z,97427.41
2022-11-30T05:22:37.512Z,97433.47
2022-11-30T05:25:04.185Z,97431.63
2022-11-30T05:27:30.880Z,97434.38
2022-11-30T05:29:57.555Z,97434.31
2022-11-30T05:32:24.040Z,97429.22
2022-11-30T05:34:51.920Z,97438.63
2022-11-30T05:37:19.416Z,97439.63
2022-11-30T05:39:45.944Z,97439.78
2022-11-30T05:42:12.472Z,97452.00
2022-11-30T05:44:38.999Z,97447.69
2022-11-30T05:47:05.678Z,97444.94
2022-11-30T05:49:32.235Z,97448.44
2022-11-30T05:51:58.695Z,97451.78
2022-11-30T05:54:25.217Z,97456.28
2022-11-30T05:56:55.015Z,97452.91
2022-11-30T05:59:21.892Z,97452.91
2022-11-30T06:01:48.718Z,97458.09
2022-11-30T06:04:15.415Z,97452.84
2022-11-30T06:06:41.900Z,97459.97
2022-11-30T06:09:08.426Z,97459.97
2022-11-30T06:11:34.968Z,97470.38
2022-11-30T06:14:01.682Z,97463.34
2022-11-30T06:16:28.248Z,97460.75
2022-11-30T06:18:54.854Z,97466.88
2022-11-30T06:21:24.739Z,97453.22
2022-11-30T06:23:52.395Z,97456.50
2022-11-30T06:26:18.964Z,97457.22
2022-11-30T06:28:48.536Z,97448.63
2022-11-30T06:31:16.431Z,97460.63
2022-11-30T06:33:43.223Z,97467.78
2022-11-30T06:36:10.552Z,97466.78
2022-11-30T06:38:37.380Z,97467.66
2022-11-30T06:41:09.364Z,97473.00
2022-11-30T06:43:39.608Z,97466.16
2022-11-30T06:46:07.117Z,97471.25
2022-11-30T06:48:34.968Z,97467.44
2022-11-30T06:51:37.250Z,97465.44
2022-11-30T06:54:03.836Z,97479.69
2022-11-30T06:56:30.345Z,97478.25
2022-11-30T06:58:57.652Z,97474.22
2022-11-30T07:01:24.168Z,97474.56
2022-11-30T07:03:50.910Z,97475.72
2022-11-30T07:06:17.573Z,97472.13
2022-11-30T07:08:44.487Z,97473.63
2022-11-30T07:11:12.199Z,97471.97
2022-11-30T07:13:39.043Z,97475.56
2022-11-30T07:16:07.821Z,97479.00
2022-11-30T07:18:35.105Z,97480.47
2022-11-30T07:21:04.146Z,97477.81
2022-11-30T07:23:55.538Z,97482.16
2022-11-30T07:26:23.329Z,97476.47
2022-11-30T07:28:54.688Z,97482.69
2022-11-30T07:31:27.416Z,97479.91
2022-11-30T07:33:54.895Z,97482.50
2022-11-30T07:36:23.915Z,97486.78
2022-11-30T07:38:50.464Z,97483.03
2022-11-30T07:41:17.195Z,97485.09
2022-11-30T07:43:44.548Z,97487.63
2022-11-30T07:46:15.710Z,97476.63
2022-11-30T07:48:43.890Z,97483.16
2022-11-30T07:51:16.797Z,97482.47
2022-11-30T07:53:44.261Z,97491.69
2022-11-30T07:56:13.572Z,97491.09
2022-11-30T07:58:41.437Z,97496.06
2022-11-30T08:01:11.377Z,97491.16
2022-11-30T08:03:38.302Z,97492.69
2022-11-30T08:06:13.628Z,97498.59
2022-11-30T08:08:42.655Z,97500.44
2022-11-30T08:11:12.381Z,97496.06
2022-11-30T08:13:39.256Z,97498.28
2022-11-30T08:16:08.623Z,97496.63
2022-11-30T08:18:35.231Z,97508.63
2022-11-30T08:21:04.529Z,97500.31
2022-11-30T08:23:33.066Z,97495.09
2022-11-30T08:26:06.269Z,97496.69
2022-11-30T08:28:36.098Z,97494.47
2022-11-30T08:31:07.777Z,97500.06
2022-11-30T08:33:35.983Z,97490.03
2022-11-30T08:36:10.494Z,97497.13
2022-11-30T08:38:37.764Z,97504.81
2022-11-30T08:41:05.669Z,97507.84
2022-11-30T08:43:32.245Z,97506.91
2022-11-30T08:45:59.335Z,97509.66
2022-11-30T08:48:25.943Z,97516.78
2022-11-30T08:50:52.453Z,97520.00
2022-11-30T08:53:19.217Z,97509.97
2022-11-30T08:55:56.665Z,97511.13
2022-11-30T08:58:23.172Z,97521.19
2022-11-30T09:00:49.705Z,97522.22
2022-11-30T09:03:16.362Z,97509.28
2022-11-30T09:05:42.875Z,97520.63
2022-11-30T09:08:09.426Z,97513.03
2022-11-30T09:10:35.937Z,97518.88
2022-11-30T09:13:02.429Z,97517.81
2022-11-30T09:15:28.995Z,97519.81
2022-11-30T09:17:55.482Z,97524.75
2022-11-30T09:20:22.046Z,97523.44
2022-11-30T09:22:48.549Z,97522.88
2022-11-30T09:25:15.133Z,97531.97
2022-11-30T09:27:41.623Z,97537.56
2022-11-30T09:30:08.979Z,97534.34
2022-11-30T09:32:35.572Z,97533.31
2022-11-30T09:35:02.076Z,97528.91
2022-11-30T09:37:28.598Z,97528.69
2022-11-30T09:39:55.133Z,97519.22
2022-11-30T09:42:33.657Z,97519.09
2022-11-30T09:45:02.902Z,97520.81
2022-11-30T09:47:35.584Z,97524.25
2022-11-30T09:50:13.895Z,97516.50
2022-11-30T09:52:45.030Z,97519.03
2022-11-30T09:55:20.919Z,97520.25
2022-11-30T09:57:54.571Z,97510.16
2022-11-30T10:00:24.015Z,97518.34
2022-11-30T10:02:53.001Z,97514.84
2022-11-30T10:05:23.198Z,97512.31
2022-11-30T10:08:12.823Z,97512.31
2022-11-30T10:10:43.386Z,97504.25
2022-11-30T10:13:12.829Z,97505.16
2022-11-30T10:16:21.082Z,97507.22
2022-11-30T10:18:54.267Z,97503.78
2022-11-30T10:21:41.305Z,97505.75
2022-11-30T10:24:21.030Z,97500.72
2022-11-30T10:26:55.985Z,97506.06
2022-11-30T10:29:28.334Z,97509.84
2022-11-30T10:32:03.059Z,97506.75
2022-11-30T10:34:35.701Z,97509.41
2022-11-30T10:37:18.031Z,97507.38
2022-11-30T10:40:01.564Z,97505.66
2022-11-30T10:42:37.244Z,97500.06
2022-11-30T10:45:10.726Z,97500.16
2022-11-30T10:47:44.541Z,97506.91
2022-11-30T10:50:15.491Z,97497.03
2022-11-30T10:52:55.442Z,97501.13
2022-11-30T10:55:25.008Z,97498.44
2022-11-30T10:58:00.112Z,97497.41
2022-11-30T11:00:26.710Z,97492.47
2022-11-30T11:02:53.665Z,97488.09
2022-11-30T11:05:20.376Z,97481.56
2022-11-30T11:08:05.923Z,97481.53
2022-11-30T11:10:44.468Z,97474.34
2022-11-30T11:13:19.242Z,97469.66
2022-11-30T11:16:00.599Z,97473.44
2022-11-30T11:18:29.424Z,97470.81
2022-11-30T11:21:14.515Z,97472.31
2022-11-30T11:23:42.472Z,97472.78
2022-11-30T11:26:27.351Z,97477.22
2022-11-30T11:28:56.822Z,97482.84
2022-11-30T11:31:32.493Z,97473.91
2022-11-30T11:33:59.057Z,97475.38
2022-11-30T11:36:29.728Z,97476.28
2022-11-30T11:38:57.292Z,97472.84
2022-11-30T11:41:37.546Z,97476.50
2022-11-30T11:44:10.213Z,97468.16
2022-11-30T11:46:53.762Z,97470.69
2022-11-30T11:49:26.496Z,97472.09
2022-11-30T11:52:19.446Z,97475.06
2022-11-30T11:54:58.950Z,97461.16
2022-11-30T11:57:40.846Z,97472.69
2022-11-30T12:00:17.564Z,97474.34
2022-11-30T12:03:10.999Z,97477.50
2022-11-30T12:05:43.381Z,97478.41
2022-11-30T12:08:28.661Z,97470.03
2022-11-30T12:11:00.865Z,97471.88
2022-11-30T12:13:33.225Z,97471.59
2022-11-30T12:16:11.875Z,97472.34
2022-11-30T12:19:03.257Z,97477.19
2022-11-30T12:21:52.160Z,97481.13
2022-11-30T12:24:30.577Z,97483.75
2022-11-30T12:27:31.517Z,97482.38
2022-11-30T12:30:24.808Z,97477.03
2022-11-30T12:32:54.295Z,97478.47
2022-11-30T12:35:23.842Z,97487.34
2022-11-30T12:38:12.073Z,97485.16
2022-11-30T12:41:01.912Z,97485.00
2022-11-30T12:44:28.866Z,97495.75
2022-11-30T12:47:10.247Z,97494.66
2022-11-30T12:49:49.009Z,97499.13
2022-11-30T12:52:27.621Z,97493.91
2022-11-30T12:54:54.058Z,97492.59
2022-11-30T12:57:55.460Z,97492.41
2022-11-30T13:00:24.321Z,97487.88
2022-11-30T13:03:05.661Z,97486.97
2022-11-30T13:05:41.432Z,97483.22
2022-11-30T13:08:19.992Z,97482.47
2022-11-30T13:10:51.707Z,97490.34
2022-11-30T13:13:28.905Z,97483.38
2022-11-30T13:15:56.519Z,97491.34
2022-11-30T13:18:24.207Z,97485.19
2022-11-30T13:21:26.928Z,97489.63
2022-11-30T13:24:07.738Z,97487.66
2022-11-30T13:26:51.925Z,97481.47
2022-11-30T13:29:35.829Z,97483.47
2022-11-30T13:32:33.749Z,97485.06
2022-11-30T13:35:37.789Z,97485.88
2022-11-30T13:38:35.617Z,97497.19
2022-11-30T13:41:03.331Z,97487.91
2022-11-30T13:43:35.078Z,97489.69
2022-11-30T13:46:06.446Z,97479.78
2022-11-30T13:48:38.250Z,97483.88
2022-11-30T13:51:05.487Z,97488.66
2022-11-30T13:53:38.615Z,97489.63
2022-11-30T13:56:27.147Z,97482.47
2022-11-30T13:59:34.558Z,97482.16
2022-11-30T14:02:29.082Z,97491.28
2022-11-30T14:05:16.756Z,97491.41
2022-11-30T14:07:47.783Z,97489.53
2022-11-30T14:10:34.765Z,97491.66
2022-11-30T14:13:25.354Z,97491.06
2022-11-30T14:15:55.572Z,97491.44
2022-11-30T14:18:42.057Z,97488.41
2022-11-30T14:21:31.346Z,97485.75
2022-11-30T14:24:06.722Z,97480.31
2022-11-30T14:26:43.565Z,97490.75
2022-11-30T14:29:19.217Z,97487.69
2022-11-30T14:32:00.225Z,97486.19
2022-11-30T14:34:32.638Z,97484.50
2022-11-30T14:37:20.979Z,97486.09
2022-11-30T14:39:49.144Z,97480.84
2022-11-30T14:42:30.544Z,97480.19
2022-11-30T14:44:58.193Z,97477.78
2022-11-30T14:47:32.083Z,97477.88
2022-11-30T14:50:02.656Z,97474.56
2022-11-30T14:52:44.248Z,97474.81
2022-11-30T14:55:16.492Z,97481.22
2022-11-30T14:58:19.991Z,97484.50
2022-11-30T15:00:47.553Z,97483.38
2022-11-30T15:03:31.233Z,97482.72
2022-11-30T15:06:03.394Z,97478.25
2022-11-30T15:08:37.787Z,97485.03
2022-11-30T15:11:06.888Z,97484.66
2022-11-30T15:13:34.282Z,97489.16
2022-11-30T15:16:00.925Z,97491.03
2022-11-30T15:18:27.466Z,97484.97
2022-11-30T15:21:05.712Z,97487.69
2022-11-30T15:23:32.378Z,97487.78
2022-11-30T15:26:05.860Z,97490.44
2022-11-30T15:28:37.569Z,97493.97
2022-11-30T15:31:07.877Z,97495.81
2022-11-30T15:33:40.978Z,97494.16
2022-11-30T15:36:31.222Z,97500.06
2022-11-30T15:38:54.641Z,97500.28
2022-11-30T15:41:24.360Z,97498.91
2022-11-30T15:43:53.796Z,97497.28
2022-11-30T15:46:38.768Z,97498.19
2022-11-30T15:49:10.906Z,97499.06
2022-11-30T15:51:40.582Z,97495.00
2022-11-30T15:54:07.610Z,97500.41
2022-11-30T15:56:34.767Z,97507.34
2022-11-30T15:59:06.139Z,97504.03
2022-11-30T16:02:02.713Z,97517.03
2022-11-30T16:04:57.956Z,97523.84
2022-11-30T16:07:27.507Z,97516.88
2022-11-30T16:10:07.120Z,97518.59
2022-11-30T16:12:33.890Z,97515.31
2022-11-30T16:15:00.496Z,97520.50
2022-11-30T16:17:28.191Z,97525.63
2022-11-30T16:19:54.665Z,97527.28
2022-11-30T16:22:21.230Z,97528.22
2022-11-30T16:24:47.747Z,97519.59
2022-11-30T16:27:19.376Z,97525.56
2022-11-30T16:29:52.118Z,97516.88
2022-11-30T16:32:19.276Z,97511.75
2022-11-30T16:34:47.865Z,97529.00
2022-11-30T16:37:14.834Z,97530.50
2022-11-30T16:39:41.331Z,97525.34
2022-11-30T16:42:11.718Z,97534.03
2022-11-30T16:44:38.569Z,97524.56
2022-11-30T16:47:05.145Z,97524.81
2022-11-30T16:49:31.809Z,97525.09
2022-11-30T16:51:58.380Z,97519.34
2022-11-30T16:54:24.869Z,97516.06
2022-11-30T16:56:51.395Z,97530.81
2022-11-30T16:59:17.866Z,97524.00
2022-11-30T17:01:47.420Z,97520.47
2022-11-30T17:04:26.400Z,97518.63
2022-11-30T17:06:58.737Z,97517.06
2022-11-30T17:09:29.808Z,97517.97
2022-11-30T17:11:56.358Z,97511.13
2022-11-30T17:14:22.815Z,97513.88
2022-11-30T17:16:49.626Z,97515.88
2022-11-30T17:19:16.247Z,97528.91
2022-11-30T17:21:44.701Z,97528.84
2022-11-30T17:24:13.223Z,97524.59
2022-11-30T17:26:40.617Z,97521.16
2022-11-30T17:29:07.145Z,97520.28
2022-11-30T17:31:34.333Z,97529.03
2022-11-30T17:34:01.035Z,97525.50
2022-11-30T17:36:29.329Z,97533.38
2022-11-30T17:38:56.160Z,97539.47
2022-11-30T17:41:22.893Z,97546.28
2022-11-30T17:43:49.652Z,97541.09
2022-11-30T17:46:18.115Z,97539.63
2022-11-30T17:48:45.096Z,97540.56
2022-11-30T17:51:12.496Z,97544.34
2022-11-30T17:53:40.737Z,97539.44
2022-11-30T17:56:09.735Z,97542.97
2022-11-30T17:58:43.012Z,97538.88
2022-11-30T18:01:16.215Z,97540.38
2022-11-30T18:03:42.918Z,97540.28
2022-11-30T18:06:09.422Z,97536.00
2022-11-30T18:08:37.862Z,97532.69
2022-11-30T18:11:20.195Z,97537.09
2022-11-30T18:13:48.056Z,97546.66
2022-11-30T18:16:17.953Z,97542.31
2022-11-30T18:18:48.100Z,97536.16
2022-11-30T18:21:20.310Z,97534.53
2022-11-30T18:23:47.810Z,97540.13
2022-11-30T18:26:17.666Z,97553.47
2022-11-30T18:28:45.167Z,97545.03
2022-11-30T18:31:11.812Z,97554.72
2022-11-30T18:33:38.489Z,97550.72
2022-11-30T18:36:08.821Z,97549.16
2022-11-30T18:38:38.518Z,97540.81
2022-11-30T18:41:05.762Z,97543.66
2022-11-30T18:43:33.513Z,97548.84
2022-11-30T18:46:08.823Z,97550.59
2022-11-30T18:48:36.020Z,97559.09
2022-11-30T18:51:17.286Z,97560.56
2022-11-30T18:53:44.280Z,97558.94
2022-11-30T18:56:14.435Z,97557.28
2022-11-30T18:58:42.129Z,97565.06
2022-11-30T19:01:20.095Z,97550.47
2022-11-30T19:03:54.851Z,97548.69
2022-11-30T19:06:21.805Z,97553.97
2022-11-30T19:08:48.758Z,97558.16
2022-11-30T19:11:16.725Z,97573.75
2022-11-30T19:13:44.280Z,97576.38
2022-11-30T19:16:13.934Z,97576.13
2022-11-30T19:18:40.901Z,97563.03
2022-11-30T19:21:12.874Z,97565.66
2022-11-30T19:23:39.717Z,97572.53
2022-11-30T19:26:07.764Z,97561.41
2022-11-30T19:28:35.953Z,97570.84
2022-11-30T19:31:13.895Z,97570.63
2022-11-30T19:33:43.021Z,97573.06
2022-11-30T19:36:16.768Z,97567.13
2022-11-30T19:38:43.841Z,97568.16
2022-11-30T19:41:12.310Z,97565.56
2022-11-30T19:43:39.647Z,97564.63
2022-11-30T19:46:08.041Z,97563.88
2022-11-30T19:48:35.412Z,97569.94
2022-11-30T19:51:10.938Z,97568.94
2022-11-30T19:53:41.199Z,97568.81
2022-11-30T19:56:10.375Z,97569.50
2022-11-30T19:58:36.910Z,97568.59
2022-11-30T20:01:05.099Z,97570.09
2022-11-30T20:03:35.309Z,97562.50
2022-11-30T20:06:02.316Z,97563.47
2022-11-30T20:08:29.274Z,97568.84
2022-11-30T20:10:55.767Z,97574.06
2022-11-30T20:13:22.311Z,97572.41
2022-11-30T20:15:48.876Z,97581.22
2022-11-30T20:18:15.459Z,97582.22
2022-11-30T20:20:41.986Z,97578.00
2022-11-30T20:23:08.526Z,97579.72
2022-11-30T20:25:35.122Z,97576.38
2022-11-30T20:28:01.708Z,97573.78
2022-11-30T20:30:28.497Z,97574.66
2022-11-30T20:32:55.154Z,97576.19
2022-11-30T20:35:21.672Z,97575.94
2022-11-30T20:37:48.256Z,97578.53
2022-11-30T20:40:14.912Z,97574.13
2022-11-30T20:42:41.446Z,97571.25
2022-11-30T20:45:08.291Z,97569.34
2022-11-30T20:47:35.322Z,97564.78
2022-11-30T20:50:02.814Z,97564.75
2022-11-30T20:52:29.338Z,97575.03
2022-11-30T20:54:56.167Z,97574.91
2022-11-30T20:57:23.234Z,97574.88
2022-11-30T20:59:49.789Z,97578.34
2022-11-30T21:02:16.478Z,97566.13
2022-11-30T21:04:43.186Z,97569.84
2022-11-30T21:07:09.654Z,97570.69
2022-11-30T21:09:36.172Z,97575.75
2022-11-30T21:12:02.661Z,97566.09
2022-11-30T21:14:29.232Z,97572.00
2022-11-30T21:16:55.811Z,97570.16
2022-11-30T21:19:22.857Z,97569.25
2022-11-30T21:21:49.450Z,97564.13
2022-11-30T21:24:15.989Z,97569.28
2022-11-30T21:26:43.096Z,97568.44
2022-11-30T21:29:17.393Z,97574.47
2022-11-30T21:31:44.882Z,97574.47
2022-11-30T21:34:11.450Z,97572.66
2022-11-30T21:36:38.642Z,97568.19
2022-11-30T21:39:08.934Z,97569.66
2022-11-30T21:41:37.398Z,97575.72
2022-11-30T21:44:05.307Z,97571.53
2022-11-30T21:46:32.409Z,97574.25
2022-11-30T21:48:59.063Z,97569.84
2022-11-30T21:51:28.738Z,97565.41
2022-11-30T21:53:57.729Z,97565.31
2022-11-30T21:56:31.382Z,97562.75
2022-11-30T21:58:58.556Z,97561.66
2022-11-30T22:01:26.911Z,97566.81
2022-11-30T22:03:56.859Z,97569.22
2022-11-30T22:06:24.216Z,97568.25
2022-11-30T22:08:50.891Z,97568.13
2022-11-30T22:11:20.545Z,97572.44
2022-11-30T22:13:51.579Z,97572.25
2022-11-30T22:16:18.745Z,97567.19
2022-11-30T22:18:45.941Z,97560.19
2022-11-30T22:21:17.792Z,97569.81
2022-11-30T22:23:47.602Z,97563.31
2022-11-30T22:26:17.326Z,97557.91
2022-11-30T22:28:47.376Z,97561.38
2022-11-30T22:31:16.029Z,97552.56
2022-11-30T22:33:43.719Z,97557.59
2022-11-30T22:36:15.379Z,97558.59
2022-11-30T22:38:42.111Z,97559.47
2022-11-30T22:41:17.149Z,97551.75
2022-11-30T22:43:46.354Z,97560.22
2022-11-30T22:46:22.243Z,97553.38
2022-11-30T22:48:50.276Z,97572.56
2022-11-30T22:51:19.360Z,97567.94
2022-11-30T22:53:47.959Z,97563.69
2022-11-30T22:56:17.839Z,97562.81
2022-11-30T22:58:46.949Z,97561.75
2022-11-30T23:01:19.222Z,97564.38
2022-11-30T23:03:47.565Z,97558.28
2022-11-30T23:06:15.864Z,97556.44
2022-11-30T23:08:43.110Z,97554.78
2022-11-30T23:11:12.548Z,97552.69
2022-11-30T23:13:40.378Z,97556.22
2022-11-30T23:16:07.792Z,97554.72
2022-11-30T23:18:39.789Z,97546.59
2022-11-30T23:21:12.842Z,97551.00
2022-11-30T23:23:39.942Z,97539.53
2022-11-30T23:26:21.755Z,97545.56
2022-11-30T23:28:50.047Z,97538.69
2022-11-30T23:31:34.571Z,97544.72
2022-11-30T23:34:11.359Z,97546.56
2022-11-30T23:36:38.060Z,97544.13
2022-11-30T23:39:07.714Z,97545.81
2022-11-30T23:41:34.245Z,97546.78
2022-11-30T23:44:01.703Z,97539.94
2022-11-30T23:46:28.689Z,97540.66
2022-11-30T23:48:55.859Z,97537.25
2022-11-30T23:51:23.465Z,97543.44
2022-11-30T23:53:50.106Z,97539.94
2022-11-30T23:56:18.396Z,97546.00
2022-11-30T23:58:45.311Z,97549.56
